Home

Weather

KSLC Current Conditions

KSLC 182154Z 00000KT 10SM FEW025 BKN042 BKN065 BKN130 BKN180 04/M01 A3029 RMK AO2 SNB31E51 SLP257 ACSL DSNT S AND SW AND NW SH DSNT NE-SE P0000 T00391011

KSLC Aviation Forecast

TAF AMD KSLC 182059Z 1821/1924 32006KT P6SM VCSH SCT020 BKN050 FM190000 34006KT P6SM SCT030 SCT060 FM190200 16007KT P6SM SCT050 SCT100 FM191100 16007KT P6SM OVC060


39° F
Mostly Cloudy
Mostly Cloudy

Snow Showers
Friday
Snow Showers
High 39°/Low 28°
40%
Overcast
Saturday
Overcast
High 41°/Low 33°
10%
Overcast
Sunday
Overcast
High 45°/Low 34°
0%
Snow
Monday
Snow
High 36°/Low 19°
100%
Partly Cloudy
Tuesday
Partly Cloudy
High 26°/Low 17°
10%
Snow Showers
Wednesday
Snow Showers
High 32°/Low 26°
30%